createdAt,value
2022-12-09T00:00:38.693Z,13.63
2022-12-09T00:03:14.167Z,12.30
2022-12-09T00:05:50.671Z,10.82
2022-12-09T00:08:25.961Z,12.60
2022-12-09T00:11:01.689Z,14.00
2022-12-09T00:13:37.439Z,13.38
2022-12-09T00:16:15.017Z,12.85
2022-12-09T00:18:51.363Z,15.70
2022-12-09T00:21:30.515Z,11.98
2022-12-09T00:24:07.650Z,13.02
2022-12-09T00:26:42.565Z,14.05
2022-12-09T00:29:17.513Z,14.57
2022-12-09T00:31:52.726Z,11.65
2022-12-09T00:34:27.691Z,12.60
2022-12-09T00:37:02.538Z,14.57
2022-12-09T00:39:37.444Z,13.45
2022-12-09T00:42:12.599Z,13.43
2022-12-09T00:44:47.742Z,13.90
2022-12-09T00:47:22.791Z,12.63
2022-12-09T00:49:57.751Z,14.43
2022-12-09T00:52:32.685Z,10.60
2022-12-09T00:55:08.151Z,16.05
2022-12-09T00:57:43.203Z,11.07
2022-12-09T01:00:18.807Z,15.80
2022-12-09T01:02:53.930Z,14.85
2022-12-09T01:05:29.463Z,14.35
2022-12-09T01:08:04.919Z,13.30
2022-12-09T01:10:42.090Z,13.55
2022-12-09T01:13:17.509Z,13.93
2022-12-09T01:15:52.540Z,15.35
2022-12-09T01:18:27.434Z,14.45
2022-12-09T01:21:03.083Z,12.73
2022-12-09T01:23:38.257Z,12.75
2022-12-09T01:26:13.359Z,13.90
2022-12-09T01:28:52.649Z,11.63
2022-12-09T01:31:28.042Z,13.50
2022-12-09T01:34:03.928Z,15.27
2022-12-09T01:36:39.023Z,12.75
2022-12-09T01:39:14.297Z,12.07
2022-12-09T01:41:51.257Z,12.35
2022-12-09T01:44:27.909Z,10.00
2022-12-09T01:47:03.137Z,11.23
2022-12-09T01:49:46.515Z,12.30
2022-12-09T01:52:23.184Z,10.00
2022-12-09T01:54:58.672Z,12.77
2022-12-09T01:57:34.485Z,9.55
2022-12-09T02:00:10.817Z,12.80
2022-12-09T02:02:54.806Z,14.23
2022-12-09T02:05:31.172Z,11.35
2022-12-09T02:08:16.563Z,14.15
2022-12-09T02:11:45.344Z,11.80
2022-12-09T02:14:48.766Z,9.55
2022-12-09T02:17:40.100Z,11.15
2022-12-09T02:20:26.545Z,13.80
2022-12-09T02:23:30.242Z,8.85
2022-12-09T02:26:32.955Z,13.02
2022-12-09T02:29:41.269Z,9.20
2022-12-09T02:32:59.288Z,14.45
2022-12-09T02:35:50.609Z,10.95
2022-12-09T02:38:30.405Z,9.10
2022-12-09T02:41:27.849Z,9.70
2022-12-09T02:44:14.808Z,12.90
2022-12-09T02:46:51.151Z,9.05
2022-12-09T02:49:28.391Z,12.18
2022-12-09T02:52:05.608Z,9.02
2022-12-09T02:54:43.585Z,14.45
2022-12-09T02:57:24.246Z,11.57
2022-12-09T02:59:59.341Z,12.45
2022-12-09T03:02:43.888Z,11.43
2022-12-09T03:05:30.665Z,10.85
2022-12-09T03:08:41.654Z,12.18
2022-12-09T03:11:19.674Z,8.57
2022-12-09T03:14:19.067Z,10.38
2022-12-09T03:17:02.556Z,8.20
2022-12-09T03:20:07.491Z,11.35
2022-12-09T03:22:45.160Z,9.50
2022-12-09T03:25:31.471Z,10.77
2022-12-09T03:28:14.181Z,11.27
2022-12-09T03:30:49.836Z,8.88
2022-12-09T03:33:26.601Z,8.55
2022-12-09T03:36:05.651Z,8.23
2022-12-09T03:38:42.688Z,12.18
2022-12-09T03:41:30.946Z,12.38
2022-12-09T03:44:16.920Z,11.60
2022-12-09T03:46:52.261Z,9.07
2022-12-09T03:49:27.231Z,8.98
2022-12-09T03:52:19.591Z,10.95
2022-12-09T03:55:13.954Z,11.55
2022-12-09T03:57:53.908Z,11.13
2022-12-09T04:00:30.555Z,10.25
2022-12-09T04:03:07.352Z,11.32
2022-12-09T04:05:43.261Z,12.13
2022-12-09T04:08:18.335Z,10.40
2022-12-09T04:10:53.477Z,9.40
2022-12-09T04:13:28.363Z,11.40
2022-12-09T04:16:03.661Z,12.00
2022-12-09T04:18:38.632Z,10.73
2022-12-09T04:21:14.057Z,8.75
2022-12-09T04:23:48.953Z,11.13
2022-12-09T04:26:24.343Z,10.13
2022-12-09T04:28:59.689Z,8.65
2022-12-09T04:31:35.089Z,12.88
2022-12-09T04:34:10.433Z,8.27
2022-12-09T04:36:45.687Z,11.50
2022-12-09T04:39:20.641Z,13.52
2022-12-09T04:41:56.466Z,11.10
2022-12-09T04:44:31.627Z,9.88
2022-12-09T04:47:07.051Z,9.85
2022-12-09T04:49:42.100Z,8.63
2022-12-09T04:52:18.576Z,10.38
2022-12-09T04:54:53.603Z,8.50
2022-12-09T04:57:29.664Z,9.70
2022-12-09T05:00:07.575Z,8.93
2022-12-09T05:02:42.989Z,10.90
2022-12-09T05:05:18.469Z,7.93
2022-12-09T05:07:55.096Z,10.02
2022-12-09T05:10:30.273Z,10.10
2022-12-09T05:13:05.488Z,11.68
2022-12-09T05:15:40.836Z,9.27
2022-12-09T05:18:16.227Z,9.05
2022-12-09T05:20:51.316Z,10.77
2022-12-09T05:23:26.582Z,14.30
2022-12-09T05:26:07.644Z,11.82
2022-12-09T05:28:43.011Z,15.13
2022-12-09T05:31:22.099Z,10.95
2022-12-09T05:33:59.187Z,10.73
2022-12-09T05:36:34.359Z,12.43
2022-12-09T05:39:10.531Z,12.75
2022-12-09T05:41:47.317Z,9.30
2022-12-09T05:44:22.699Z,8.07
2022-12-09T05:46:58.274Z,9.85
2022-12-09T05:49:33.517Z,11.75
2022-12-09T05:52:10.475Z,8.25
2022-12-09T05:54:45.501Z,11.98
2022-12-09T05:57:21.342Z,9.35
2022-12-09T05:59:56.393Z,10.30
2022-12-09T06:02:31.404Z,13.85
2022-12-09T06:05:07.809Z,13.13
2022-12-09T06:07:43.168Z,15.43
2022-12-09T06:10:18.928Z,11.07
2022-12-09T06:12:55.452Z,9.68
2022-12-09T06:15:33.500Z,11.50
2022-12-09T06:18:08.995Z,10.25
2022-12-09T06:20:44.360Z,10.95
2022-12-09T06:23:19.560Z,11.98
2022-12-09T06:25:54.408Z,12.25
2022-12-09T06:28:30.179Z,13.25
2022-12-09T06:31:05.772Z,11.90
2022-12-09T06:33:58.453Z,9.20
2022-12-09T06:36:33.897Z,7.38
2022-12-09T06:39:11.137Z,11.88
2022-12-09T06:41:46.241Z,10.38
2022-12-09T06:44:23.717Z,10.35
2022-12-09T06:47:00.382Z,11.15
2022-12-09T06:49:36.008Z,10.60
2022-12-09T06:52:11.141Z,13.30
2022-12-09T06:54:46.247Z,14.43
2022-12-09T06:57:21.222Z,14.60
2022-12-09T06:59:56.227Z,14.30
2022-12-09T07:02:36.111Z,17.58
2022-12-09T07:05:13.049Z,16.60
2022-12-09T07:07:53.071Z,16.35
2022-12-09T07:10:28.394Z,17.25
2022-12-09T07:13:03.702Z,16.98
2022-12-09T07:15:38.706Z,16.65
2022-12-09T07:18:13.805Z,13.77
2022-12-09T07:20:48.895Z,56.53
2022-12-09T07:23:24.287Z,102.68
2022-12-09T07:26:02.354Z,119.82
2022-12-09T07:28:42.575Z,57.15
2022-12-09T07:31:29.395Z,23.83
2022-12-09T07:34:05.165Z,17.35
2022-12-09T07:36:40.679Z,22.80
2022-12-09T07:39:19.193Z,22.52
2022-12-09T07:41:57.021Z,21.63
2022-12-09T07:44:37.070Z,14.63
2022-12-09T07:47:12.409Z,15.98
2022-12-09T07:49:49.200Z,15.68
2022-12-09T07:52:24.743Z,16.35
2022-12-09T07:55:01.575Z,15.40
2022-12-09T07:57:38.725Z,13.13
2022-12-09T08:00:14.766Z,14.18
2022-12-09T08:02:52.362Z,17.43
2022-12-09T08:05:27.548Z,16.77
2022-12-09T08:08:03.191Z,21.77
2022-12-09T08:10:38.474Z,36.78
2022-12-09T08:13:13.484Z,18.27
2022-12-09T08:15:48.807Z,18.57
2022-12-09T08:18:23.935Z,15.30
2022-12-09T08:21:00.408Z,30.53
2022-12-09T08:23:36.372Z,30.97
2022-12-09T08:26:13.846Z,28.43
2022-12-09T08:28:49.579Z,22.50
2022-12-09T08:31:26.613Z,18.93
2022-12-09T08:34:05.415Z,17.23
2022-12-09T08:36:41.045Z,15.93
2022-12-09T08:39:16.318Z,16.90
2022-12-09T08:41:51.241Z,20.43
2022-12-09T08:44:26.553Z,20.50
2022-12-09T08:47:01.907Z,30.40
2022-12-09T08:49:37.460Z,19.63
2022-12-09T08:52:12.797Z,13.23
2022-12-09T08:54:48.161Z,15.03
2022-12-09T08:57:24.897Z,12.30
2022-12-09T08:59:59.914Z,11.40
2022-12-09T09:02:35.317Z,13.83
2022-12-09T09:05:10.565Z,13.47
2022-12-09T09:07:45.849Z,11.57
2022-12-09T09:10:20.955Z,14.70
2022-12-09T09:12:56.306Z,14.83
2022-12-09T09:15:31.518Z,13.77
2022-12-09T09:18:07.078Z,15.03
2022-12-09T09:20:50.420Z,15.17
2022-12-09T09:23:26.217Z,13.27
2022-12-09T09:26:02.574Z,18.53
2022-12-09T09:28:37.929Z,15.60
2022-12-09T09:31:16.811Z,14.60
2022-12-09T09:33:52.964Z,15.23
2022-12-09T09:36:28.381Z,16.23
2022-12-09T09:39:03.698Z,13.67
2022-12-09T09:42:08.673Z,15.40
2022-12-09T09:44:49.300Z,16.93
2022-12-09T09:47:40.250Z,15.50
2022-12-09T09:51:07.357Z,13.83
2022-12-09T09:53:42.454Z,14.83
2022-12-09T09:56:31.974Z,18.47
2022-12-09T09:59:48.483Z,15.40
2022-12-09T10:02:37.752Z,14.93
2022-12-09T10:05:28.592Z,47.33
2022-12-09T10:08:44.561Z,29.93
2022-12-09T10:11:29.867Z,17.70
2022-12-09T10:14:23.416Z,18.63
2022-12-09T10:17:57.127Z,16.27
2022-12-09T10:20:33.147Z,13.60
2022-12-09T10:23:14.877Z,11.93
2022-12-09T10:25:58.364Z,15.43
2022-12-09T10:28:40.522Z,14.63
2022-12-09T10:31:16.573Z,13.17
2022-12-09T10:33:51.650Z,10.87
2022-12-09T10:36:35.204Z,14.40
2022-12-09T10:39:20.400Z,13.73
2022-12-09T10:42:16.141Z,13.80
2022-12-09T10:45:04.622Z,16.07
2022-12-09T10:47:40.271Z,14.83
2022-12-09T10:50:35.732Z,16.83
2022-12-09T10:53:15.983Z,16.13
2022-12-09T10:55:53.928Z,13.30
2022-12-09T10:58:31.869Z,12.00
2022-12-09T11:01:11.966Z,14.90
2022-12-09T11:03:56.197Z,14.67
2022-12-09T11:06:40.750Z,13.50
2022-12-09T11:09:28.864Z,14.73
2022-12-09T11:12:07.945Z,15.17
2022-12-09T11:15:26.395Z,16.50
2022-12-09T11:18:32.259Z,14.47
2022-12-09T11:21:30.812Z,12.87
2022-12-09T11:24:21.581Z,16.80
2022-12-09T11:26:58.058Z,19.53
2022-12-09T11:29:34.413Z,17.00
2022-12-09T11:32:14.444Z,13.90
2022-12-09T11:34:50.105Z,15.60
2022-12-09T11:37:25.332Z,14.00
2022-12-09T11:40:00.176Z,18.50
2022-12-09T11:42:35.095Z,16.00
2022-12-09T11:45:22.693Z,16.27
2022-12-09T11:48:36.204Z,16.87
2022-12-09T11:51:39.635Z,16.40
2022-12-09T11:54:27.447Z,12.90
2022-12-09T11:57:05.301Z,13.20
2022-12-09T11:59:51.893Z,16.43
2022-12-09T12:02:37.825Z,15.20
2022-12-09T12:05:26.802Z,16.30
2022-12-09T12:08:17.469Z,14.40
2022-12-09T12:11:03.475Z,14.67
2022-12-09T12:13:57.788Z,16.10
2022-12-09T12:17:17.545Z,13.90
2022-12-09T12:19:56.307Z,18.17
2022-12-09T12:22:56.617Z,18.40
2022-12-09T12:26:01.120Z,18.30
2022-12-09T12:29:36.636Z,20.90
2022-12-09T12:37:06.700Z,16.43
2022-12-09T12:40:23.449Z,20.80
2022-12-09T12:43:48.252Z,18.10
2022-12-09T12:46:47.961Z,18.40
2022-12-09T12:49:54.189Z,17.30
2022-12-09T12:53:15.784Z,17.13
2022-12-09T12:56:03.253Z,20.53
2022-12-09T12:59:04.363Z,17.83
2022-12-09T13:01:55.198Z,21.97
2022-12-09T13:04:52.856Z,16.53
2022-12-09T13:07:50.938Z,17.60
2022-12-09T13:10:41.483Z,18.90
2022-12-09T13:13:39.909Z,16.70
2022-12-09T13:16:21.404Z,19.73
2022-12-09T13:19:16.409Z,19.07
2022-12-09T13:21:52.602Z,19.10
2022-12-09T13:24:43.189Z,17.43
2022-12-09T13:27:42.917Z,21.00
2022-12-09T13:30:23.335Z,20.53
2022-12-09T13:33:28.622Z,17.70
2022-12-09T13:36:45.529Z,17.10
2022-12-09T13:39:40.286Z,19.10
2022-12-09T13:42:46.563Z,15.53
2022-12-09T13:45:43.062Z,17.90
2022-12-09T13:48:17.940Z,19.60
2022-12-09T13:50:55.917Z,15.97
2022-12-09T13:53:45.819Z,18.27
2022-12-09T13:56:26.961Z,20.10
2022-12-09T13:59:41.236Z,20.00
2022-12-09T14:02:44.025Z,19.70
2022-12-09T14:05:26.212Z,15.40
2022-12-09T14:08:25.848Z,16.57
2022-12-09T14:12:06.372Z,23.13
2022-12-09T14:14:44.231Z,20.50
2022-12-09T14:17:24.917Z,20.60
2022-12-09T14:20:22.150Z,23.80
2022-12-09T14:23:11.811Z,23.50
2022-12-09T14:26:00.443Z,19.83
2022-12-09T14:28:41.602Z,18.53
2022-12-09T14:31:44.164Z,19.97
2022-12-09T14:34:34.867Z,20.97
2022-12-09T14:37:18.547Z,22.07
2022-12-09T14:40:18.341Z,22.67
2022-12-09T14:43:05.360Z,22.40
2022-12-09T14:46:02.811Z,22.30
2022-12-09T14:48:40.579Z,26.10
2022-12-09T14:51:44.476Z,23.83
2022-12-09T14:54:50.978Z,27.40
2022-12-09T14:57:43.992Z,24.20
2022-12-09T15:00:38.153Z,21.53
2022-12-09T15:03:35.537Z,23.83
2022-12-09T15:06:19.447Z,25.43
2022-12-09T15:08:58.972Z,26.20
2022-12-09T15:11:35.707Z,25.57
2022-12-09T15:14:28.595Z,26.37
2022-12-09T15:17:03.902Z,26.73
2022-12-09T15:22:34.449Z,25.07
2022-12-09T15:25:18.424Z,27.33
2022-12-09T15:28:03.201Z,29.50
2022-12-09T15:30:38.838Z,28.13
2022-12-09T15:33:19.902Z,30.37
2022-12-09T15:36:05.085Z,29.93
2022-12-09T15:39:06.701Z,30.20
2022-12-09T15:42:06.611Z,31.83
2022-12-09T15:45:13.149Z,29.20
2022-12-09T15:48:15.136Z,33.10
2022-12-09T15:51:04.708Z,28.17
2022-12-09T15:54:00.283Z,31.60
2022-12-09T15:56:44.901Z,38.43
2022-12-09T15:59:36.514Z,31.60
2022-12-09T16:02:22.301Z,32.67
2022-12-09T16:05:03.067Z,28.63
2022-12-09T16:07:38.202Z,31.13
2022-12-09T16:10:16.646Z,32.00
2022-12-09T16:13:13.140Z,30.63
2022-12-09T16:15:53.798Z,36.17
2022-12-09T16:18:46.353Z,30.13
2022-12-09T16:21:29.642Z,33.17
2022-12-09T16:24:12.934Z,33.87
2022-12-09T16:26:50.763Z,34.40
2022-12-09T16:29:35.388Z,32.27
2022-12-09T16:32:15.960Z,38.13
2022-12-09T16:34:57.201Z,35.70
2022-12-09T16:37:42.511Z,30.23
2022-12-09T16:40:26.486Z,32.50
2022-12-09T16:43:17.131Z,34.20
2022-12-09T16:45:57.839Z,31.73
2022-12-09T16:48:32.742Z,36.77
2022-12-09T16:51:17.568Z,34.60
2022-12-09T16:53:54.296Z,35.53
2022-12-09T16:56:31.774Z,30.33
2022-12-09T16:59:06.688Z,35.00
2022-12-09T17:01:42.306Z,33.93
2022-12-09T17:04:23.726Z,37.90
2022-12-09T17:06:58.598Z,32.07
2022-12-09T17:09:33.453Z,38.40
2022-12-09T17:12:08.749Z,40.73
2022-12-09T17:14:43.850Z,37.13
2022-12-09T17:17:18.859Z,36.10
2022-12-09T17:19:53.743Z,34.57
2022-12-09T17:22:28.610Z,33.63
2022-12-09T17:25:04.260Z,35.47
2022-12-09T17:27:39.688Z,35.60
2022-12-09T17:30:14.667Z,38.80
2022-12-09T17:32:49.523Z,40.00
2022-12-09T17:35:24.345Z,40.20
2022-12-09T17:37:59.188Z,36.70
2022-12-09T17:40:37.780Z,36.60
2022-12-09T17:43:12.931Z,35.87
2022-12-09T17:45:47.868Z,39.67
2022-12-09T17:48:22.886Z,41.93
2022-12-09T17:50:58.083Z,36.90
2022-12-09T17:53:38.231Z,35.37
2022-12-09T17:56:17.578Z,39.03
2022-12-09T17:59:09.140Z,39.03
2022-12-09T18:01:46.235Z,37.67
2022-12-09T18:04:21.242Z,36.00
2022-12-09T18:06:56.205Z,37.73
2022-12-09T18:09:31.052Z,39.13
2022-12-09T18:12:06.197Z,39.43
2022-12-09T18:14:41.109Z,36.63
2022-12-09T18:17:16.359Z,40.20
2022-12-09T18:19:51.311Z,39.10
2022-12-09T18:22:26.185Z,36.60
2022-12-09T18:25:01.227Z,38.30
2022-12-09T18:27:36.114Z,33.07
2022-12-09T18:30:11.631Z,35.50
2022-12-09T18:32:46.504Z,39.33
2022-12-09T18:35:21.457Z,40.17
2022-12-09T18:38:06.020Z,42.87
2022-12-09T18:41:04.049Z,39.00
2022-12-09T18:43:42.250Z,40.77
2022-12-09T18:46:26.276Z,40.33
2022-12-09T18:49:12.244Z,38.80
2022-12-09T18:51:49.382Z,42.33
2022-12-09T18:54:29.229Z,36.57
2022-12-09T18:57:04.292Z,42.37
2022-12-09T18:59:39.177Z,38.33
2022-12-09T19:02:14.691Z,34.00
2022-12-09T19:04:49.656Z,37.80
2022-12-09T19:07:29.085Z,40.07
2022-12-09T19:10:07.406Z,39.00
2022-12-09T19:12:47.721Z,35.63
2022-12-09T19:15:24.449Z,35.03
2022-12-09T19:17:59.315Z,36.70
2022-12-09T19:20:34.388Z,33.23
2022-12-09T19:23:09.244Z,37.97
2022-12-09T19:25:44.146Z,32.93
2022-12-09T19:28:18.994Z,35.90
2022-12-09T19:30:53.849Z,35.37
2022-12-09T19:33:28.783Z,30.33
2022-12-09T19:36:04.385Z,34.43
2022-12-09T19:38:40.235Z,36.53
2022-12-09T19:41:15.168Z,36.60
2022-12-09T19:43:58.732Z,31.10
2022-12-09T19:46:34.587Z,34.17
2022-12-09T19:49:13.853Z,32.37
2022-12-09T19:51:49.729Z,29.03
2022-12-09T19:54:28.689Z,32.10
2022-12-09T19:57:03.831Z,36.30
2022-12-09T19:59:38.679Z,33.77
2022-12-09T20:02:14.927Z,26.97
2022-12-09T20:04:50.830Z,30.77
2022-12-09T20:07:26.080Z,30.60
2022-12-09T20:10:01.008Z,29.17
2022-12-09T20:12:38.211Z,32.10
2022-12-09T20:15:13.389Z,28.67
2022-12-09T20:17:48.422Z,27.80
2022-12-09T20:20:23.378Z,30.90
2022-12-09T20:22:58.249Z,29.63
2022-12-09T20:25:35.040Z,35.10
2022-12-09T20:28:10.162Z,24.70
2022-12-09T20:30:45.210Z,29.40
2022-12-09T20:33:20.043Z,31.33
2022-12-09T20:35:55.011Z,28.40
2022-12-09T20:38:30.891Z,34.90
2022-12-09T20:41:10.975Z,37.67
2022-12-09T20:43:48.408Z,32.80
2022-12-09T20:46:32.214Z,33.13
2022-12-09T20:49:07.700Z,30.53
2022-12-09T20:51:45.260Z,31.30
2022-12-09T20:54:20.225Z,35.37
2022-12-09T20:56:55.194Z,35.40
2022-12-09T20:59:30.080Z,30.67
2022-12-09T21:02:09.456Z,31.33
2022-12-09T21:04:47.197Z,36.67
2022-12-09T21:07:22.081Z,35.67
2022-12-09T21:09:57.012Z,28.40
2022-12-09T21:12:31.861Z,34.43
2022-12-09T21:15:07.159Z,29.20
2022-12-09T21:17:42.193Z,33.50
2022-12-09T21:20:18.088Z,29.17
2022-12-09T21:23:10.798Z,28.50
2022-12-09T21:25:47.737Z,33.80
2022-12-09T21:28:22.564Z,33.37
2022-12-09T21:30:57.503Z,33.40
2022-12-09T21:33:32.320Z,29.60
2022-12-09T21:36:15.123Z,32.73
2022-12-09T21:38:50.167Z,35.60
2022-12-09T21:41:28.602Z,35.00
2022-12-09T21:44:06.652Z,31.97
2022-12-09T21:46:42.279Z,37.97
2022-12-09T21:49:17.235Z,30.43
2022-12-09T21:51:52.474Z,30.77
2022-12-09T21:54:27.400Z,34.30
2022-12-09T21:57:02.260Z,32.30
2022-12-09T21:59:37.702Z,31.87
2022-12-09T22:02:13.456Z,28.47
2022-12-09T22:04:48.423Z,31.43
2022-12-09T22:07:23.254Z,36.37
2022-12-09T22:09:58.189Z,27.50
2022-12-09T22:12:33.032Z,31.57
2022-12-09T22:15:10.541Z,31.13
2022-12-09T22:17:45.568Z,32.10
2022-12-09T22:21:00.540Z,32.30
2022-12-09T22:23:15.253Z,28.57
2022-12-09T22:25:50.099Z,34.73
2022-12-09T22:28:25.963Z,31.73
2022-12-09T22:31:01.877Z,28.53
2022-12-09T22:33:37.020Z,30.93
2022-12-09T22:36:12.825Z,30.73
2022-12-09T22:38:48.305Z,27.80
2022-12-09T22:41:26.669Z,32.73
2022-12-09T22:44:02.508Z,33.07
2022-12-09T22:46:37.434Z,29.03
2022-12-09T22:49:15.060Z,32.30
2022-12-09T22:51:50.036Z,28.93
2022-12-09T22:54:24.983Z,31.43
2022-12-09T22:56:59.868Z,30.00
2022-12-09T22:59:38.450Z,28.43
2022-12-09T23:02:17.743Z,28.73
2022-12-09T23:04:52.702Z,28.83
2022-12-09T23:07:27.546Z,29.63
2022-12-09T23:10:02.755Z,28.73
2022-12-09T23:12:37.649Z,31.10
2022-12-09T23:15:12.541Z,27.23
2022-12-09T23:17:47.400Z,31.33
2022-12-09T23:20:22.546Z,26.20
2022-12-09T23:22:57.435Z,27.53
2022-12-09T23:25:33.718Z,28.33
2022-12-09T23:28:08.664Z,26.47
2022-12-09T23:30:43.740Z,31.10
2022-12-09T23:33:18.649Z,25.60
2022-12-09T23:35:53.473Z,26.07
2022-12-09T23:38:28.296Z,32.87
2022-12-09T23:41:04.202Z,26.93
2022-12-09T23:43:39.507Z,27.73
2022-12-09T23:46:19.881Z,24.90
2022-12-09T23:48:56.507Z,24.87
2022-12-09T23:51:34.096Z,28.93
2022-12-09T23:54:11.008Z,31.80
2022-12-09T23:56:52.534Z,29.23
2022-12-09T23:59:27.378Z,26.50
